sensor_id;sensor_type;location;lat;lon;timestamp;P1;durP1;ratioP1;P2;durP2;ratioP2
1747;SDS011;871;47.034;15.394;2023-05-07T04:02:37;28.80;;;7.20;;
1747;SDS011;871;47.034;15.394;2023-05-07T04:05:03;29.23;;;6.10;;
1747;SDS011;871;47.034;15.394;2023-05-07T04:07:31;28.00;;;6.57;;
1747;SDS011;871;47.034;15.394;2023-05-07T04:09:57;29.60;;;6.63;;
1747;SDS011;871;47.034;15.394;2023-05-07T04:12:23;31.33;;;7.23;;
1747;SDS011;871;47.034;15.394;2023-05-07T04:14:49;33.23;;;7.90;;
1747;SDS011;871;47.034;15.394;2023-05-07T04:17:15;33.20;;;7.30;;
1747;SDS011;871;47.034;15.394;2023-05-07T04:19:41;34.37;;;7.57;;
1747;SDS011;871;47.034;15.394;2023-05-07T04:22:10;34.23;;;7.27;;
1747;SDS011;871;47.034;15.394;2023-05-07T04:24:36;33.97;;;7.20;;
1747;SDS011;871;47.034;15.394;2023-05-07T04:27:02;36.00;;;8.07;;
1747;SDS011;871;47.034;15.394;2023-05-07T04:29:29;38.20;;;8.40;;
1747;SDS011;871;47.034;15.394;2023-05-07T04:31:55;35.60;;;7.00;;
1747;SDS011;871;47.034;15.394;2023-05-07T04:34:21;35.10;;;6.00;;
1747;SDS011;871;47.034;15.394;2023-05-07T04:36:47;37.70;;;6.60;;
1747;SDS011;871;47.034;15.394;2023-05-07T04:39:13;37.00;;;6.60;;
1747;SDS011;871;47.034;15.394;2023-05-07T04:41:41;37.97;;;7.43;;
1747;SDS011;871;47.034;15.394;2023-05-07T04:44:07;40.47;;;6.97;;
1747;SDS011;871;47.034;15.394;2023-05-07T04:46:34;39.97;;;6.50;;
1747;SDS011;871;47.034;15.394;2023-05-07T04:49:00;41.87;;;7.77;;
1747;SDS011;871;47.034;15.394;2023-05-07T04:51:26;40.30;;;7.50;;
1747;SDS011;871;47.034;15.394;2023-05-07T04:53:52;42.97;;;7.43;;
1747;SDS011;871;47.034;15.394;2023-05-07T04:56:20;39.67;;;7.33;;
1747;SDS011;871;47.034;15.394;2023-05-07T04:58:46;39.93;;;7.13;;
1747;SDS011;871;47.034;15.394;2023-05-07T05:01:13;38.73;;;7.93;;
1747;SDS011;871;47.034;15.394;2023-05-07T05:03:39;39.27;;;7.97;;
1747;SDS011;871;47.034;15.394;2023-05-07T05:06:05;39.90;;;7.80;;
1747;SDS011;871;47.034;15.394;2023-05-07T05:08:31;41.03;;;8.00;;
1747;SDS011;871;47.034;15.394;2023-05-07T05:10:57;40.07;;;7.33;;
1747;SDS011;871;47.034;15.394;2023-05-07T05:13:23;42.67;;;7.63;;
1747;SDS011;871;47.034;15.394;2023-05-07T05:15:49;45.03;;;8.17;;
1747;SDS011;871;47.034;15.394;2023-05-07T05:18:15;43.90;;;8.57;;
1747;SDS011;871;47.034;15.394;2023-05-07T05:20:41;45.30;;;8.93;;
1747;SDS011;871;47.034;15.394;2023-05-07T05:23:07;45.70;;;9.20;;
1747;SDS011;871;47.034;15.394;2023-05-07T05:25:33;43.40;;;8.10;;
1747;SDS011;871;47.034;15.394;2023-05-07T05:27:59;43.27;;;8.43;;
1747;SDS011;871;47.034;15.394;2023-05-07T05:30:26;45.70;;;8.70;;
1747;SDS011;871;47.034;15.394;2023-05-07T05:32:53;47.83;;;9.27;;
1747;SDS011;871;47.034;15.394;2023-05-07T05:35:20;45.20;;;9.30;;
1747;SDS011;871;47.034;15.394;2023-05-07T05:37:47;45.77;;;9.37;;
1747;SDS011;871;47.034;15.394;2023-05-07T05:40:13;45.03;;;9.80;;
1747;SDS011;871;47.034;15.394;2023-05-07T05:42:39;45.23;;;9.00;;
1747;SDS011;871;47.034;15.394;2023-05-07T05:45:05;45.93;;;8.63;;
1747;SDS011;871;47.034;15.394;2023-05-07T05:47:32;44.77;;;8.00;;
1747;SDS011;871;47.034;15.394;2023-05-07T05:49:58;46.00;;;9.17;;
1747;SDS011;871;47.034;15.394;2023-05-07T05:52:24;44.70;;;8.07;;
1747;SDS011;871;47.034;15.394;2023-05-07T05:54:50;47.47;;;9.63;;
1747;SDS011;871;47.034;15.394;2023-05-07T05:57:16;45.70;;;9.80;;
1747;SDS011;871;47.034;15.394;2023-05-07T05:59:42;47.90;;;10.53;;
1747;SDS011;871;47.034;15.394;2023-05-07T06:02:08;43.80;;;8.37;;
1747;SDS011;871;47.034;15.394;2023-05-07T06:04:34;44.73;;;9.20;;
1747;SDS011;871;47.034;15.394;2023-05-07T06:07:00;45.43;;;8.87;;
1747;SDS011;871;47.034;15.394;2023-05-07T06:09:26;45.37;;;9.00;;
1747;SDS011;871;47.034;15.394;2023-05-07T06:11:52;45.27;;;8.63;;
1747;SDS011;871;47.034;15.394;2023-05-07T06:14:18;43.80;;;7.30;;
1747;SDS011;871;47.034;15.394;2023-05-07T06:16:44;45.10;;;8.00;;
1747;SDS011;871;47.034;15.394;2023-05-07T06:19:10;44.97;;;7.97;;
1747;SDS011;871;47.034;15.394;2023-05-07T06:21:36;43.73;;;6.70;;
1747;SDS011;871;47.034;15.394;2023-05-07T06:24:02;43.90;;;7.47;;
1747;SDS011;871;47.034;15.394;2023-05-07T06:26:28;43.77;;;6.37;;
1747;SDS011;871;47.034;15.394;2023-05-07T06:28:54;40.97;;;4.67;;
1747;SDS011;871;47.034;15.394;2023-05-07T06:31:20;41.23;;;4.60;;
1747;SDS011;871;47.034;15.394;2023-05-07T06:33:48;42.60;;;5.13;;
1747;SDS011;871;47.034;15.394;2023-05-07T06:36:14;41.90;;;4.70;;
1747;SDS011;871;47.034;15.394;2023-05-07T06:38:41;41.40;;;4.30;;
1747;SDS011;871;47.034;15.394;2023-05-07T06:41:07;42.10;;;4.90;;
1747;SDS011;871;47.034;15.394;2023-05-07T06:43:33;42.90;;;6.03;;
1747;SDS011;871;47.034;15.394;2023-05-07T06:45:59;40.87;;;4.37;;
1747;SDS011;871;47.034;15.394;2023-05-07T06:48:25;43.83;;;6.07;;
1747;SDS011;871;47.034;15.394;2023-05-07T06:50:52;44.17;;;5.63;;
1747;SDS011;871;47.034;15.394;2023-05-07T06:53:20;42.73;;;4.60;;
1747;SDS011;871;47.034;15.394;2023-05-07T06:55:46;41.60;;;4.30;;
1747;SDS011;871;47.034;15.394;2023-05-07T06:58:12;41.47;;;4.57;;
1747;SDS011;871;47.034;15.394;2023-05-07T07:00:38;42.17;;;4.60;;
1747;SDS011;871;47.034;15.394;2023-05-07T07:03:04;41.13;;;4.47;;
1747;SDS011;871;47.034;15.394;2023-05-07T07:05:30;44.00;;;4.43;;
1747;SDS011;871;47.034;15.394;2023-05-07T07:07:56;42.60;;;4.90;;
1747;SDS011;871;47.034;15.394;2023-05-07T07:10:22;41.40;;;5.17;;
1747;SDS011;871;47.034;15.394;2023-05-07T07:12:49;40.90;;;4.70;;
1747;SDS011;871;47.034;15.394;2023-05-07T07:15:17;40.67;;;4.53;;
1747;SDS011;871;47.034;15.394;2023-05-07T07:17:43;43.60;;;5.50;;
1747;SDS011;871;47.034;15.394;2023-05-07T07:20:09;41.13;;;4.37;;
1747;SDS011;871;47.034;15.394;2023-05-07T07:22:35;42.20;;;4.10;;
1747;SDS011;871;47.034;15.394;2023-05-07T07:25:01;42.30;;;4.63;;
1747;SDS011;871;47.034;15.394;2023-05-07T07:27:28;42.07;;;4.77;;
1747;SDS011;871;47.034;15.394;2023-05-07T07:29:54;43.37;;;4.90;;
1747;SDS011;871;47.034;15.394;2023-05-07T07:32:20;41.90;;;5.30;;
1747;SDS011;871;47.034;15.394;2023-05-07T07:34:46;42.20;;;5.10;;
1747;SDS011;871;47.034;15.394;2023-05-07T07:37:12;41.50;;;5.13;;
1747;SDS011;871;47.034;15.394;2023-05-07T07:39:38;43.23;;;5.10;;
1747;SDS011;871;47.034;15.394;2023-05-07T07:42:05;40.80;;;5.00;;
1747;SDS011;871;47.034;15.394;2023-05-07T07:44:31;43.50;;;5.20;;
1747;SDS011;871;47.034;15.394;2023-05-07T07:46:57;43.80;;;5.20;;
1747;SDS011;871;47.034;15.394;2023-05-07T07:49:23;44.53;;;6.07;;
1747;SDS011;871;47.034;15.394;2023-05-07T07:51:49;45.50;;;5.20;;
1747;SDS011;871;47.034;15.394;2023-05-07T07:54:16;41.60;;;4.47;;
1747;SDS011;871;47.034;15.394;2023-05-07T07:56:42;44.60;;;5.23;;
1747;SDS011;871;47.034;15.394;2023-05-07T07:59:08;43.20;;;5.63;;
1747;SDS011;871;47.034;15.394;2023-05-07T08:01:34;43.20;;;5.17;;
1747;SDS011;871;47.034;15.394;2023-05-07T08:04:00;42.80;;;4.87;;
1747;SDS011;871;47.034;15.394;2023-05-07T08:06:28;44.37;;;5.47;;
1747;SDS011;871;47.034;15.394;2023-05-07T08:08:54;42.73;;;5.33;;
1747;SDS011;871;47.034;15.394;2023-05-07T08:11:20;43.07;;;5.33;;
1747;SDS011;871;47.034;15.394;2023-05-07T08:13:46;42.60;;;4.97;;
1747;SDS011;871;47.034;15.394;2023-05-07T08:16:12;43.50;;;5.40;;
1747;SDS011;871;47.034;15.394;2023-05-07T08:18:39;43.10;;;5.20;;
1747;SDS011;871;47.034;15.394;2023-05-07T08:21:05;42.07;;;4.93;;
1747;SDS011;871;47.034;15.394;2023-05-07T08:23:31;44.37;;;5.97;;
1747;SDS011;871;47.034;15.394;2023-05-07T08:25:57;42.37;;;4.87;;
1747;SDS011;871;47.034;15.394;2023-05-07T08:28:23;42.33;;;5.27;;
1747;SDS011;871;47.034;15.394;2023-05-07T08:30:50;43.67;;;5.83;;
1747;SDS011;871;47.034;15.394;2023-05-07T08:33:16;48.30;;;5.57;;
1747;SDS011;871;47.034;15.394;2023-05-07T08:35:42;47.00;;;6.03;;
1747;SDS011;871;47.034;15.394;2023-05-07T08:38:08;42.60;;;5.87;;
1747;SDS011;871;47.034;15.394;2023-05-07T08:40:36;42.67;;;5.20;;
1747;SDS011;871;47.034;15.394;2023-05-07T08:43:03;42.50;;;5.37;;
1747;SDS011;871;47.034;15.394;2023-05-07T08:45:30;43.37;;;5.70;;
1747;SDS011;871;47.034;15.394;2023-05-07T08:47:58;42.10;;;5.20;;
1747;SDS011;871;47.034;15.394;2023-05-07T08:50:26;43.40;;;5.83;;
1747;SDS011;871;47.034;15.394;2023-05-07T08:52:52;42.70;;;5.60;;
1747;SDS011;871;47.034;15.394;2023-05-07T08:55:19;44.87;;;5.50;;
1747;SDS011;871;47.034;15.394;2023-05-07T08:57:45;43.03;;;6.17;;
1747;SDS011;871;47.034;15.394;2023-05-07T09:00:13;42.80;;;5.70;;
1747;SDS011;871;47.034;15.394;2023-05-07T09:02:39;42.90;;;5.50;;
1747;SDS011;871;47.034;15.394;2023-05-07T09:05:05;44.37;;;6.10;;
1747;SDS011;871;47.034;15.394;2023-05-07T09:07:31;42.40;;;4.93;;
1747;SDS011;871;47.034;15.394;2023-05-07T09:09:57;42.73;;;5.17;;
1747;SDS011;871;47.034;15.394;2023-05-07T09:12:24;43.47;;;6.67;;
1747;SDS011;871;47.034;15.394;2023-05-07T09:14:50;42.67;;;5.40;;
1747;SDS011;871;47.034;15.394;2023-05-07T09:17:16;44.77;;;5.77;;
1747;SDS011;871;47.034;15.394;2023-05-07T09:19:43;43.70;;;6.20;;
1747;SDS011;871;47.034;15.394;2023-05-07T09:22:11;42.70;;;4.80;;
1747;SDS011;871;47.034;15.394;2023-05-07T09:24:37;43.10;;;5.73;;
1747;SDS011;871;47.034;15.394;2023-05-07T09:27:03;43.33;;;5.93;;
1747;SDS011;871;47.034;15.394;2023-05-07T09:29:30;42.80;;;5.57;;
1747;SDS011;871;47.034;15.394;2023-05-07T09:32:03;45.10;;;5.80;;
1747;SDS011;871;47.034;15.394;2023-05-07T09:34:29;41.40;;;4.70;;
1747;SDS011;871;47.034;15.394;2023-05-07T09:36:55;44.10;;;5.60;;
1747;SDS011;871;47.034;15.394;2023-05-07T09:39:22;44.40;;;5.33;;
1747;SDS011;871;47.034;15.394;2023-05-07T09:41:48;43.30;;;5.33;;
1747;SDS011;871;47.034;15.394;2023-05-07T09:44:16;42.33;;;5.17;;
1747;SDS011;871;47.034;15.394;2023-05-07T09:46:43;42.23;;;5.10;;
1747;SDS011;871;47.034;15.394;2023-05-07T09:49:12;42.23;;;4.77;;
1747;SDS011;871;47.034;15.394;2023-05-07T09:51:45;42.10;;;4.90;;
1747;SDS011;871;47.034;15.394;2023-05-07T09:54:11;42.83;;;5.37;;
1747;SDS011;871;47.034;15.394;2023-05-07T09:56:37;42.07;;;4.17;;
1747;SDS011;871;47.034;15.394;2023-05-07T09:59:03;41.60;;;4.30;;
1747;SDS011;871;47.034;15.394;2023-05-07T10:01:31;42.73;;;5.23;;
1747;SDS011;871;47.034;15.394;2023-05-07T10:03:57;42.57;;;5.30;;
1747;SDS011;871;47.034;15.394;2023-05-07T10:06:24;46.70;;;5.93;;
1747;SDS011;871;47.034;15.394;2023-05-07T10:08:51;41.83;;;4.60;;
1747;SDS011;871;47.034;15.394;2023-05-07T10:11:17;41.90;;;4.87;;
1747;SDS011;871;47.034;15.394;2023-05-07T10:13:43;42.00;;;4.50;;
1747;SDS011;871;47.034;15.394;2023-05-07T10:16:09;42.07;;;4.90;;
1747;SDS011;871;47.034;15.394;2023-05-07T10:18:36;41.20;;;3.87;;
1747;SDS011;871;47.034;15.394;2023-05-07T10:21:19;41.80;;;4.60;;
1747;SDS011;871;47.034;15.394;2023-05-07T10:23:45;42.27;;;4.83;;
1747;SDS011;871;47.034;15.394;2023-05-07T10:26:13;43.90;;;4.90;;
1747;SDS011;871;47.034;15.394;2023-05-07T10:28:41;43.70;;;4.67;;
1747;SDS011;871;47.034;15.394;2023-05-07T10:31:11;42.60;;;4.90;;
1747;SDS011;871;47.034;15.394;2023-05-07T10:33:41;41.70;;;4.50;;
1747;SDS011;871;47.034;15.394;2023-05-07T10:36:08;42.00;;;4.57;;
1747;SDS011;871;47.034;15.394;2023-05-07T10:38:34;42.40;;;4.70;;
1747;SDS011;871;47.034;15.394;2023-05-07T10:41:00;42.63;;;5.40;;
1747;SDS011;871;47.034;15.394;2023-05-07T10:43:39;43.17;;;4.80;;
1747;SDS011;871;47.034;15.394;2023-05-07T10:46:10;46.25;;;5.60;;
1747;SDS011;871;47.034;15.394;2023-05-07T10:49:06;44.97;;;5.03;;
1747;SDS011;871;47.034;15.394;2023-05-07T10:51:32;44.50;;;4.57;;
1747;SDS011;871;47.034;15.394;2023-05-07T10:56:37;42.90;;;5.10;;
1747;SDS011;871;47.034;15.394;2023-05-07T11:01:59;41.20;;;4.37;;
1747;SDS011;871;47.034;15.394;2023-05-07T11:04:30;46.17;;;4.60;;
1747;SDS011;871;47.034;15.394;2023-05-07T11:12:16;42.40;;;5.70;;
1747;SDS011;871;47.034;15.394;2023-05-07T11:14:45;41.67;;;4.40;;
1747;SDS011;871;47.034;15.394;2023-05-07T11:17:12;42.93;;;5.00;;
1747;SDS011;871;47.034;15.394;2023-05-07T11:19:48;41.67;;;3.87;;
1747;SDS011;871;47.034;15.394;2023-05-07T11:24:59;41.83;;;4.80;;
1747;SDS011;871;47.034;15.394;2023-05-07T11:27:26;41.60;;;4.73;;
1747;SDS011;871;47.034;15.394;2023-05-07T11:29:52;42.07;;;4.63;;
1747;SDS011;871;47.034;15.394;2023-05-07T11:32:28;42.50;;;5.13;;
1747;SDS011;871;47.034;15.394;2023-05-07T11:34:55;42.97;;;4.93;;
1747;SDS011;871;47.034;15.394;2023-05-07T11:37:22;41.77;;;4.57;;
1747;SDS011;871;47.034;15.394;2023-05-07T11:39:48;45.78;;;4.93;;
1747;SDS011;871;47.034;15.394;2023-05-07T11:42:27;42.60;;;5.00;;
1747;SDS011;871;47.034;15.394;2023-05-07T11:44:53;43.00;;;5.20;;
1747;SDS011;871;47.034;15.394;2023-05-07T11:47:20;42.57;;;4.83;;
1747;SDS011;871;47.034;15.394;2023-05-07T11:49:47;42.77;;;5.30;;
1747;SDS011;871;47.034;15.394;2023-05-07T11:52:13;42.17;;;4.63;;
1747;SDS011;871;47.034;15.394;2023-05-07T11:54:39;42.33;;;4.70;;
1747;SDS011;871;47.034;15.394;2023-05-07T11:57:05;41.80;;;4.13;;
1747;SDS011;871;47.034;15.394;2023-05-07T11:59:50;42.00;;;4.40;;
1747;SDS011;871;47.034;15.394;2023-05-07T12:02:18;41.70;;;4.43;;
1747;SDS011;871;47.034;15.394;2023-05-07T12:04:44;43.40;;;4.53;;
1747;SDS011;871;47.034;15.394;2023-05-07T12:07:13;42.13;;;4.60;;
1747;SDS011;871;47.034;15.394;2023-05-07T12:09:46;42.30;;;4.63;;
1747;SDS011;871;47.034;15.394;2023-05-07T12:12:13;41.57;;;4.60;;
1747;SDS011;871;47.034;15.394;2023-05-07T12:14:45;41.77;;;4.57;;
1747;SDS011;871;47.034;15.394;2023-05-07T12:17:12;42.03;;;4.50;;
1747;SDS011;871;47.034;15.394;2023-05-07T12:19:39;42.27;;;4.83;;
1747;SDS011;871;47.034;15.394;2023-05-07T12:22:07;42.27;;;4.97;;
1747;SDS011;871;47.034;15.394;2023-05-07T12:24:47;42.17;;;4.87;;
1747;SDS011;871;47.034;15.394;2023-05-07T12:27:14;41.60;;;4.20;;
1747;SDS011;871;47.034;15.394;2023-05-07T12:29:48;43.17;;;4.57;;
1747;SDS011;871;47.034;15.394;2023-05-07T12:32:16;42.77;;;4.63;;
1747;SDS011;871;47.034;15.394;2023-05-07T12:34:43;42.40;;;4.77;;
1747;SDS011;871;47.034;15.394;2023-05-07T12:37:09;42.37;;;5.70;;
1747;SDS011;871;47.034;15.394;2023-05-07T12:39:35;41.67;;;4.63;;
1747;SDS011;871;47.034;15.394;2023-05-07T12:42:01;42.77;;;5.27;;
1747;SDS011;871;47.034;15.394;2023-05-07T12:44:32;42.50;;;4.63;;
1747;SDS011;871;47.034;15.394;2023-05-07T12:46:58;41.17;;;4.40;;
1747;SDS011;871;47.034;15.394;2023-05-07T12:49:26;42.00;;;4.80;;
1747;SDS011;871;47.034;15.394;2023-05-07T12:51:53;42.47;;;5.00;;
1747;SDS011;871;47.034;15.394;2023-05-07T12:54:32;41.27;;;4.50;;
1747;SDS011;871;47.034;15.394;2023-05-07T12:57:04;42.60;;;4.90;;
1747;SDS011;871;47.034;15.394;2023-05-07T12:59:41;42.47;;;5.07;;
1747;SDS011;871;47.034;15.394;2023-05-07T13:02:07;42.10;;;5.10;;
1747;SDS011;871;47.034;15.394;2023-05-07T13:04:34;44.50;;;4.63;;
1747;SDS011;871;47.034;15.394;2023-05-07T13:07:00;41.90;;;4.70;;
1747;SDS011;871;47.034;15.394;2023-05-07T13:09:27;41.57;;;4.70;;
1747;SDS011;871;47.034;15.394;2023-05-07T13:11:57;42.90;;;4.83;;
1747;SDS011;871;47.034;15.394;2023-05-07T13:14:26;41.80;;;4.83;;
1747;SDS011;871;47.034;15.394;2023-05-07T13:16:52;43.13;;;5.07;;
1747;SDS011;871;47.034;15.394;2023-05-07T13:19:19;41.90;;;5.20;;
1747;SDS011;871;47.034;15.394;2023-05-07T13:21:45;42.17;;;3.93;;
1747;SDS011;871;47.034;15.394;2023-05-07T13:24:12;41.60;;;2.47;;
1747;SDS011;871;47.034;15.394;2023-05-07T13:26:38;42.37;;;2.87;;
1747;SDS011;871;47.034;15.394;2023-05-07T13:29:04;41.47;;;3.43;;
1747;SDS011;871;47.034;15.394;2023-05-07T13:31:30;45.23;;;3.50;;
1747;SDS011;871;47.034;15.394;2023-05-07T13:33:56;41.30;;;3.80;;
1747;SDS011;871;47.034;15.394;2023-05-07T13:36:22;43.07;;;2.70;;
1747;SDS011;871;47.034;15.394;2023-05-07T13:38:51;45.97;;;5.90;;
1747;SDS011;871;47.034;15.394;2023-05-07T13:41:17;40.53;;;3.20;;
1747;SDS011;871;47.034;15.394;2023-05-07T13:43:43;40.90;;;3.20;;
1747;SDS011;871;47.034;15.394;2023-05-07T13:46:09;39.60;;;3.40;;
1747;SDS011;871;47.034;15.394;2023-05-07T13:48:35;39.07;;;2.90;;
1747;SDS011;871;47.034;15.394;2023-05-07T13:51:01;39.30;;;3.37;;
1747;SDS011;871;47.034;15.394;2023-05-07T13:53:27;38.70;;;2.80;;
1747;SDS011;871;47.034;15.394;2023-05-07T13:55:53;39.20;;;3.10;;
1747;SDS011;871;47.034;15.394;2023-05-07T13:58:19;39.63;;;3.90;;
1747;SDS011;871;47.034;15.394;2023-05-07T14:00:45;38.90;;;3.40;;
1747;SDS011;871;47.034;15.394;2023-05-07T14:03:11;37.70;;;4.50;;
1747;SDS011;871;47.034;15.394;2023-05-07T14:05:37;42.77;;;10.13;;
1747;SDS011;871;47.034;15.394;2023-05-07T14:08:03;43.77;;;10.40;;
1747;SDS011;871;47.034;15.394;2023-05-07T14:10:30;43.53;;;11.80;;
1747;SDS011;871;47.034;15.394;2023-05-07T14:12:56;44.30;;;11.27;;
1747;SDS011;871;47.034;15.394;2023-05-07T14:15:22;44.43;;;12.13;;
1747;SDS011;871;47.034;15.394;2023-05-07T14:17:48;44.37;;;12.30;;
1747;SDS011;871;47.034;15.394;2023-05-07T14:20:14;46.30;;;10.67;;
1747;SDS011;871;47.034;15.394;2023-05-07T14:22:40;45.27;;;11.90;;
1747;SDS011;871;47.034;15.394;2023-05-07T14:25:07;40.00;;;8.00;;
1747;SDS011;871;47.034;15.394;2023-05-07T14:27:34;42.90;;;10.03;;
1747;SDS011;871;47.034;15.394;2023-05-07T14:30:00;40.37;;;9.13;;
1747;SDS011;871;47.034;15.394;2023-05-07T14:32:26;41.87;;;11.10;;
1747;SDS011;871;47.034;15.394;2023-05-07T14:34:52;43.47;;;11.33;;
1747;SDS011;871;47.034;15.394;2023-05-07T14:37:18;44.73;;;12.20;;
1747;SDS011;871;47.034;15.394;2023-05-07T14:39:44;44.70;;;11.80;;
1747;SDS011;871;47.034;15.394;2023-05-07T14:42:10;48.43;;;12.70;;
1747;SDS011;871;47.034;15.394;2023-05-07T14:44:37;44.37;;;12.00;;
1747;SDS011;871;47.034;15.394;2023-05-07T14:47:05;44.93;;;13.60;;
1747;SDS011;871;47.034;15.394;2023-05-07T14:49:31;47.50;;;14.03;;
1747;SDS011;871;47.034;15.394;2023-05-07T14:51:57;45.60;;;12.93;;
1747;SDS011;871;47.034;15.394;2023-05-07T14:54:27;45.33;;;13.93;;
1747;SDS011;871;47.034;15.394;2023-05-07T14:56:53;48.60;;;14.33;;
1747;SDS011;871;47.034;15.394;2023-05-07T14:59:19;48.50;;;15.03;;
1747;SDS011;871;47.034;15.394;2023-05-07T15:01:46;48.50;;;13.60;;
1747;SDS011;871;47.034;15.394;2023-05-07T15:04:13;47.50;;;13.60;;
1747;SDS011;871;47.034;15.394;2023-05-07T15:06:39;46.27;;;13.80;;
1747;SDS011;871;47.034;15.394;2023-05-07T15:09:06;45.50;;;13.03;;
1747;SDS011;871;47.034;15.394;2023-05-07T15:11:33;49.13;;;13.93;;
1747;SDS011;871;47.034;15.394;2023-05-07T15:13:59;47.77;;;13.23;;
1747;SDS011;871;47.034;15.394;2023-05-07T15:16:25;50.77;;;13.70;;
1747;SDS011;871;47.034;15.394;2023-05-07T15:18:51;50.13;;;13.83;;
1747;SDS011;871;47.034;15.394;2023-05-07T15:21:17;47.20;;;12.57;;
1747;SDS011;871;47.034;15.394;2023-05-07T15:23:43;46.47;;;11.63;;
1747;SDS011;871;47.034;15.394;2023-05-07T15:26:09;53.37;;;13.90;;
1747;SDS011;871;47.034;15.394;2023-05-07T15:28:35;48.63;;;12.03;;
1747;SDS011;871;47.034;15.394;2023-05-07T15:31:03;48.20;;;12.53;;
1747;SDS011;871;47.034;15.394;2023-05-07T15:33:30;49.87;;;12.67;;
1747;SDS011;871;47.034;15.394;2023-05-07T15:35:56;47.07;;;12.33;;
1747;SDS011;871;47.034;15.394;2023-05-07T15:38:24;48.77;;;11.53;;
1747;SDS011;871;47.034;15.394;2023-05-07T15:40:50;48.10;;;11.60;;
1747;SDS011;871;47.034;15.394;2023-05-07T15:43:16;49.97;;;12.33;;
1747;SDS011;871;47.034;15.394;2023-05-07T15:45:42;47.40;;;11.20;;
1747;SDS011;871;47.034;15.394;2023-05-07T15:48:09;48.40;;;11.30;;
1747;SDS011;871;47.034;15.394;2023-05-07T15:50:35;48.10;;;11.60;;
1747;SDS011;871;47.034;15.394;2023-05-07T15:53:02;49.23;;;11.43;;
1747;SDS011;871;47.034;15.394;2023-05-07T15:55:28;48.87;;;12.43;;
1747;SDS011;871;47.034;15.394;2023-05-07T15:57:55;50.53;;;12.77;;
1747;SDS011;871;47.034;15.394;2023-05-07T16:00:21;47.70;;;11.60;;
1747;SDS011;871;47.034;15.394;2023-05-07T16:02:47;49.70;;;11.97;;
1747;SDS011;871;47.034;15.394;2023-05-07T16:05:13;48.80;;;12.60;;
1747;SDS011;871;47.034;15.394;2023-05-07T16:07:39;51.17;;;12.53;;
1747;SDS011;871;47.034;15.394;2023-05-07T16:10:08;52.13;;;13.50;;
1747;SDS011;871;47.034;15.394;2023-05-07T16:12:34;52.77;;;14.13;;
1747;SDS011;871;47.034;15.394;2023-05-07T16:15:01;50.47;;;12.97;;
1747;SDS011;871;47.034;15.394;2023-05-07T16:17:27;51.70;;;14.67;;
1747;SDS011;871;47.034;15.394;2023-05-07T16:19:53;50.90;;;14.87;;
1747;SDS011;871;47.034;15.394;2023-05-07T16:22:19;53.00;;;16.60;;
1747;SDS011;871;47.034;15.394;2023-05-07T16:24:45;55.20;;;16.87;;
1747;SDS011;871;47.034;15.394;2023-05-07T16:27:11;53.47;;;16.30;;
1747;SDS011;871;47.034;15.394;2023-05-07T16:29:37;49.17;;;13.87;;
1747;SDS011;871;47.034;15.394;2023-05-07T16:32:04;52.63;;;16.20;;
1747;SDS011;871;47.034;15.394;2023-05-07T16:34:30;52.80;;;16.37;;
1747;SDS011;871;47.034;15.394;2023-05-07T16:36:56;52.77;;;16.67;;
1747;SDS011;871;47.034;15.394;2023-05-07T16:39:22;50.07;;;15.33;;
1747;SDS011;871;47.034;15.394;2023-05-07T16:41:48;51.37;;;17.50;;
1747;SDS011;871;47.034;15.394;2023-05-07T16:44:15;52.10;;;17.83;;
1747;SDS011;871;47.034;15.394;2023-05-07T16:46:41;52.07;;;17.33;;
1747;SDS011;871;47.034;15.394;2023-05-07T16:49:07;51.60;;;15.93;;
1747;SDS011;871;47.034;15.394;2023-05-07T16:51:33;50.70;;;16.70;;
1747;SDS011;871;47.034;15.394;2023-05-07T16:53:59;49.37;;;14.70;;
1747;SDS011;871;47.034;15.394;2023-05-07T16:56:25;51.77;;;14.90;;
1747;SDS011;871;47.034;15.394;2023-05-07T16:58:51;53.00;;;16.27;;
1747;SDS011;871;47.034;15.394;2023-05-07T17:01:18;52.27;;;16.90;;
1747;SDS011;871;47.034;15.394;2023-05-07T17:03:45;52.20;;;17.00;;
1747;SDS011;871;47.034;15.394;2023-05-07T17:06:11;49.43;;;15.43;;
1747;SDS011;871;47.034;15.394;2023-05-07T17:08:40;51.93;;;17.67;;
1747;SDS011;871;47.034;15.394;2023-05-07T17:11:06;50.87;;;16.97;;
1747;SDS011;871;47.034;15.394;2023-05-07T17:13:32;52.90;;;15.60;;
1747;SDS011;871;47.034;15.394;2023-05-07T17:15:58;54.57;;;16.30;;
1747;SDS011;871;47.034;15.394;2023-05-07T17:18:24;49.00;;;15.23;;
1747;SDS011;871;47.034;15.394;2023-05-07T17:20:51;49.57;;;14.17;;
1747;SDS011;871;47.034;15.394;2023-05-07T17:23:17;50.17;;;14.67;;
1747;SDS011;871;47.034;15.394;2023-05-07T17:25:43;50.73;;;15.40;;
1747;SDS011;871;47.034;15.394;2023-05-07T17:28:12;49.43;;;14.80;;
1747;SDS011;871;47.034;15.394;2023-05-07T17:30:38;50.60;;;15.30;;
1747;SDS011;871;47.034;15.394;2023-05-07T17:33:04;51.73;;;16.60;;
1747;SDS011;871;47.034;15.394;2023-05-07T17:35:30;50.70;;;16.53;;
1747;SDS011;871;47.034;15.394;2023-05-07T17:37:57;53.03;;;18.30;;
1747;SDS011;871;47.034;15.394;2023-05-07T17:40:23;48.90;;;17.50;;
1747;SDS011;871;47.034;15.394;2023-05-07T17:42:50;51.83;;;17.57;;
1747;SDS011;871;47.034;15.394;2023-05-07T17:45:16;55.53;;;19.00;;
1747;SDS011;871;47.034;15.394;2023-05-07T17:47:42;51.43;;;17.10;;
1747;SDS011;871;47.034;15.394;2023-05-07T17:50:09;51.20;;;18.60;;
1747;SDS011;871;47.034;15.394;2023-05-07T17:52:35;54.70;;;18.27;;
1747;SDS011;871;47.034;15.394;2023-05-07T17:55:02;54.97;;;19.70;;
1747;SDS011;871;47.034;15.394;2023-05-07T17:57:28;59.27;;;19.00;;
1747;SDS011;871;47.034;15.394;2023-05-07T17:59:55;51.90;;;19.83;;
1747;SDS011;871;47.034;15.394;2023-05-07T18:02:22;52.70;;;19.13;;
1747;SDS011;871;47.034;15.394;2023-05-07T18:04:49;58.53;;;20.73;;
1747;SDS011;871;47.034;15.394;2023-05-07T18:07:16;54.57;;;18.80;;
1747;SDS011;871;47.034;15.394;2023-05-07T18:09:42;53.23;;;18.93;;
1747;SDS011;871;47.034;15.394;2023-05-07T18:12:10;53.57;;;17.70;;
1747;SDS011;871;47.034;15.394;2023-05-07T18:14:36;51.17;;;18.20;;
1747;SDS011;871;47.034;15.394;2023-05-07T18:17:04;51.50;;;19.00;;
1747;SDS011;871;47.034;15.394;2023-05-07T18:19:30;51.23;;;18.23;;
1747;SDS011;871;47.034;15.394;2023-05-07T18:21:56;50.20;;;18.63;;
1747;SDS011;871;47.034;15.394;2023-05-07T18:24:22;51.77;;;19.07;;
1747;SDS011;871;47.034;15.394;2023-05-07T18:26:49;52.23;;;18.93;;
1747;SDS011;871;47.034;15.394;2023-05-07T18:29:15;50.20;;;18.20;;
1747;SDS011;871;47.034;15.394;2023-05-07T18:31:41;55.17;;;18.73;;
1747;SDS011;871;47.034;15.394;2023-05-07T18:34:07;54.00;;;19.23;;
1747;SDS011;871;47.034;15.394;2023-05-07T18:36:34;54.50;;;18.77;;
1747;SDS011;871;47.034;15.394;2023-05-07T18:39:00;55.00;;;20.40;;
1747;SDS011;871;47.034;15.394;2023-05-07T18:41:27;55.00;;;20.77;;
1747;SDS011;871;47.034;15.394;2023-05-07T18:43:53;52.40;;;19.07;;
1747;SDS011;871;47.034;15.394;2023-05-07T18:46:19;53.10;;;20.67;;
1747;SDS011;871;47.034;15.394;2023-05-07T18:48:45;52.57;;;17.50;;
1747;SDS011;871;47.034;15.394;2023-05-07T18:51:11;56.60;;;19.00;;
1747;SDS011;871;47.034;15.394;2023-05-07T18:53:38;53.60;;;19.00;;
1747;SDS011;871;47.034;15.394;2023-05-07T18:56:04;50.73;;;18.13;;
1747;SDS011;871;47.034;15.394;2023-05-07T18:58:31;56.63;;;18.07;;
1747;SDS011;871;47.034;15.394;2023-05-07T19:00:58;52.30;;;19.77;;
1747;SDS011;871;47.034;15.394;2023-05-07T19:03:25;53.77;;;18.57;;
1747;SDS011;871;47.034;15.394;2023-05-07T19:05:51;51.00;;;17.70;;
1747;SDS011;871;47.034;15.394;2023-05-07T19:08:18;50.40;;;17.07;;
1747;SDS011;871;47.034;15.394;2023-05-07T19:10:44;51.70;;;18.33;;